Time;durP1;ratioP1;P1;durP2;ratioP2;P2;SDS_P1;SDS_P2;PMS_P1;PMS_P2;Temp;Humidity;BMP_temperature;BMP_pressure;BME280_temperature;BME280_humidity;BME280_pressure;Samples;Min_cycle;Max_cycle;Signal;HPM_P1;HPM_P2
2024/04/06 06:53:16;;;;;;;4.35;1.42;;;;;;;14.66;68.21;96671.81;2099361;27;20563;-66
2024/04/06 06:55:44;;;;;;;12.13;1.45;;;;;;;14.82;67.64;96674.38;2093126;28;20563;-64
2024/04/06 06:56:44;;;;;;;6.03;1.67;;;;;;;14.87;67.55;96672.28;2089111;28;20212;-64
2024/04/06 06:57:47;;;;;;;17.37;8.27;;;;;;;14.85;67.68;96679.41;2069136;28;20318;-65
2024/04/06 06:58:47;;;;;;;8.23;4.28;;;;;;;15.09;66.93;96674.44;2065154;28;20591;-65
2024/04/06 06:59:48;;;;;;;25.97;14.53;;;;;;;15.25;65.96;96678.72;2066328;28;20199;-65
2024/04/06 07:00:48;;;;;;;11.87;6.30;;;;;;;15.35;65.89;96678.06;2075200;28;20201;-65
2024/04/06 07:01:49;;;;;;;6.90;2.57;;;;;;;15.28;66.21;96679.38;2064982;28;20640;-64
2024/04/06 07:02:49;;;;;;;3.20;1.57;;;;;;;15.28;65.93;96678.53;2044985;28;20281;-64
2024/04/06 07:03:50;;;;;;;5.07;1.43;;;;;;;15.34;65.61;96676.34;2069763;28;20210;-65
2024/04/06 07:04:50;;;;;;;2.60;1.40;;;;;;;15.52;65.17;96676.97;2070392;28;20206;-64
2024/04/06 07:05:51;;;;;;;3.47;1.53;;;;;;;15.83;64.92;96676.81;2073275;28;20237;-64
2024/04/06 07:06:51;;;;;;;4.57;1.47;;;;;;;15.87;64.93;96672.19;2076726;28;20224;-64
2024/04/06 07:07:55;;;;;;;5.00;1.60;;;;;;;16.22;63.52;96671.66;2069540;28;20688;-64
2024/04/06 07:08:56;;;;;;;8.15;2.03;;;;;;;16.04;64.42;96673.72;2069937;28;20217;-64
2024/04/06 07:09:58;;;;;;;6.30;1.77;;;;;;;16.13;64.37;96675.72;2070306;28;20214;-64
2024/04/06 07:11:04;;;;;;;3.58;1.33;;;;;;;16.40;63.65;96673.03;2066224;28;20212;-64
2024/04/06 07:12:07;;;;;;;4.45;1.73;;;;;;;16.32;63.25;96656.91;2067172;28;20202;-64
2024/04/06 07:13:07;;;;;;;5.15;1.77;;;;;;;16.21;63.51;96669.94;2069766;28;20222;-64
2024/04/06 07:14:11;;;;;;;4.60;1.40;;;;;;;16.29;63.17;96663.22;2067113;28;20221;-64
2024/04/06 07:15:12;;;;;;;7.72;1.73;;;;;;;16.53;62.94;96657.25;2068146;28;20929;-64
2024/04/06 07:16:13;;;;;;;3.30;1.57;;;;;;;16.79;62.60;96665.97;2068012;28;20532;-64
2024/04/06 07:17:16;;;;;;;3.80;1.75;;;;;;;17.06;61.90;96654.47;2069363;28;20487;-64
2024/04/06 07:18:16;;;;;;;10.90;1.55;;;;;;;17.32;60.96;96658.84;2066774;28;20226;-64
2024/04/06 07:19:17;;;;;;;4.70;1.20;;;;;;;17.19;60.56;96662.38;2069729;28;20838;-64
2024/04/06 07:20:17;;;;;;;4.63;1.30;;;;;;;17.18;61.45;96658.03;2070214;28;20214;-64
2024/04/06 07:21:18;;;;;;;3.20;1.57;;;;;;;17.25;61.28;96666.34;2067336;28;20214;-64
2024/04/06 07:22:18;;;;;;;3.47;1.43;;;;;;;17.17;61.21;96672.19;2066173;28;20206;-63
2024/04/06 07:23:19;;;;;;;3.20;1.30;;;;;;;17.34;61.38;96662.22;2069587;28;20572;-64
2024/04/06 07:24:21;;;;;;;4.03;1.23;;;;;;;17.42;60.59;96663.34;2064685;28;20294;-64
2024/04/06 07:25:21;;;;;;;6.07;1.42;;;;;;;17.18;61.47;96675.66;2065254;28;20214;-63
2024/04/06 07:26:23;;;;;;;5.13;1.13;;;;;;;17.33;61.50;96669.31;2068404;28;20211;-63
2024/04/06 07:27:24;;;;;;;2.58;1.20;;;;;;;17.44;61.13;96677.25;2063763;28;20203;-64
2024/04/06 07:28:24;;;;;;;3.10;1.30;;;;;;;17.47;60.52;96676.19;2065505;28;20215;-64
2024/04/06 07:29:25;;;;;;;4.87;1.37;;;;;;;17.36;60.35;96684.06;2066693;28;20225;-64
2024/04/06 07:30:25;;;;;;;5.43;1.60;;;;;;;17.58;60.63;96686.81;2072861;28;20212;-63
2024/04/06 07:31:26;;;;;;;4.17;1.37;;;;;;;17.86;59.86;96678.69;2072614;28;20237;-63
2024/04/06 07:32:26;;;;;;;8.00;1.20;;;;;;;18.17;59.84;96687.00;2064511;28;20210;-63
2024/04/06 07:33:27;;;;;;;2.57;1.20;;;;;;;17.98;60.06;96693.69;2064701;28;20624;-64
2024/04/06 07:34:28;;;;;;;7.50;1.17;;;;;;;18.01;59.91;96690.81;2065298;28;20664;-63
2024/04/06 07:35:28;;;;;;;5.23;1.30;;;;;;;18.06;59.55;96690.47;2067270;28;20227;-67
2024/04/06 07:36:29;;;;;;;2.60;1.00;;;;;;;18.24;59.16;96688.25;2067266;28;20310;-69
2024/04/06 07:37:29;;;;;;;3.73;1.17;;;;;;;18.29;59.28;96688.75;2073257;28;20689;-68
2024/04/06 07:38:30;;;;;;;7.10;1.43;;;;;;;18.30;59.32;96684.28;2068833;28;20553;-69
2024/04/06 07:39:30;;;;;;;4.27;1.20;;;;;;;18.35;58.80;96690.09;2068169;28;20226;-69
2024/04/06 07:40:31;;;;;;;4.80;1.70;;;;;;;18.38;59.25;96680.13;2074685;28;20214;-69
2024/04/06 07:41:32;;;;;;;2.50;1.13;;;;;;;18.22;59.27;96680.44;2073251;28;20213;-69
2024/04/06 07:42:32;;;;;;;4.03;1.63;;;;;;;18.18;59.13;96680.78;2064343;28;20272;-69
2024/04/06 07:43:33;;;;;;;3.27;1.13;;;;;;;18.07;59.43;96678.97;2065534;28;20203;-69
2024/04/06 07:44:33;;;;;;;3.23;1.10;;;;;;;17.95;60.02;96685.97;2066045;28;20206;-69
2024/04/06 07:45:34;;;;;;;3.63;1.80;;;;;;;17.98;59.69;96672.56;2060787;28;20277;-69
2024/04/06 07:46:35;;;;;;;7.10;1.53;;;;;;;18.03;59.35;96678.34;2060333;28;20541;-69
2024/04/06 07:47:36;;;;;;;3.60;1.40;;;;;;;18.05;59.21;96665.84;2072971;28;20214;-69
2024/04/06 07:48:38;;;;;;;3.45;1.55;;;;;;;18.22;58.45;96675.16;2068909;28;20663;-70
2024/04/06 07:49:39;;;;;;;2.75;1.42;;;;;;;18.58;57.56;96670.66;2065199;28;20207;-68
2024/04/06 07:50:41;;;;;;;7.60;4.20;;;;;;;18.68;57.25;96670.81;2074302;28;20205;-67
2024/04/06 07:51:42;;;;;;;29.42;17.75;;;;;;;18.73;56.87;96668.66;2065662;28;20202;-66
2024/04/06 07:52:43;;;;;;;9.17;4.17;;;;;;;19.03;56.43;96672.56;2063579;28;20292;-67
2024/04/06 07:53:43;;;;;;;4.63;1.33;;;;;;;19.26;56.35;96677.81;2070832;28;20452;-66
2024/04/06 07:54:44;;;;;;;4.30;1.43;;;;;;;19.16;56.27;96677.72;2071525;28;20210;-66
2024/04/06 07:55:45;;;;;;;3.60;1.50;;;;;;;19.15;56.40;96683.13;2065254;28;20292;-66
2024/04/06 07:56:45;;;;;;;4.38;1.13;;;;;;;19.25;55.66;96689.38;2066055;28;20249;-66
2024/04/06 07:57:46;;;;;;;3.60;1.20;;;;;;;19.09;55.87;96673.84;2065849;28;20231;-66
2024/04/06 07:58:46;;;;;;;2.80;1.17;;;;;;;19.16;56.56;96688.31;2073198;28;20210;-67
2024/04/06 07:59:47;;;;;;;3.00;1.20;;;;;;;19.44;56.41;96686.13;2071535;28;20203;-66
2024/04/06 08:00:47;;;;;;;4.30;1.30;;;;;;;19.60;56.53;96696.28;2071499;28;20243;-66
2024/04/06 08:01:48;;;;;;;3.10;1.10;;;;;;;19.93;55.92;96691.06;2071067;28;20811;-66
2024/04/06 08:02:48;;;;;;;3.07;1.30;;;;;;;20.28;55.16;96692.59;2065132;28;20214;-67
2024/04/06 08:03:48;;;;;;;4.07;1.70;;;;;;;20.25;55.57;96692.88;2065417;28;20207;-66
2024/04/06 08:04:50;;;;;;;4.10;1.17;;;;;;;20.34;54.95;96692.09;2063936;28;20205;-67
2024/04/06 08:05:51;;;;;;;3.30;1.00;;;;;;;20.46;54.39;96699.03;2064185;28;20204;-67
2024/04/06 08:06:52;;;;;;;2.80;1.23;;;;;;;20.45;55.06;96685.91;2062652;28;20265;-67
2024/04/06 08:07:52;;;;;;;3.10;1.10;;;;;;;20.58;54.78;96686.53;2060101;28;20465;-68
2024/04/06 08:08:53;;;;;;;3.93;1.03;;;;;;;20.10;55.87;96687.03;2060477;28;20681;-67
2024/04/06 08:10:13;;;;;;;4.97;1.47;;;;;;;19.84;55.64;96690.84;2060883;28;20209;-67
2024/04/06 08:11:15;;;;;;;3.20;1.30;;;;;;;19.75;55.67;96686.28;2069071;28;20210;-67
2024/04/06 08:12:15;;;;;;;5.88;1.27;;;;;;;19.73;55.67;96691.69;2067844;28;20206;-67
2024/04/06 08:13:16;;;;;;;10.37;1.17;;;;;;;19.73;55.84;96691.69;2056906;28;20255;-67
2024/04/06 08:14:16;;;;;;;7.13;1.60;;;;;;;19.68;56.25;96688.59;2060770;28;20199;-66
2024/04/06 08:15:17;;;;;;;3.60;1.10;;;;;;;19.81;55.69;96679.66;2058234;28;20251;-67
2024/04/06 08:16:18;;;;;;;12.17;2.80;;;;;;;19.90;55.25;96689.53;2061404;28;20354;-67
2024/04/06 08:17:18;;;;;;;5.23;2.40;;;;;;;19.91;55.37;96685.91;2069884;28;20840;-67
2024/04/06 08:18:19;;;;;;;4.77;2.00;;;;;;;19.87;55.32;96682.66;2049330;28;20306;-70
2024/04/06 08:19:19;;;;;;;4.10;1.80;;;;;;;20.00;55.57;96679.00;2056114;28;20383;-70
2024/04/06 08:20:20;;;;;;;5.53;2.53;;;;;;;20.13;54.52;96678.84;2056644;28;20757;-70
2024/04/06 08:21:21;;;;;;;7.30;2.60;;;;;;;20.53;54.48;96678.13;2052194;28;20234;-70
2024/04/06 08:22:22;;;;;;;5.72;2.10;;;;;;;20.47;54.82;96671.53;2048529;28;20403;-71
2024/04/06 08:23:22;;;;;;;4.70;1.73;;;;;;;20.06;54.26;96675.84;2068968;28;20225;-70
2024/04/06 08:24:23;;;;;;;5.30;1.80;;;;;;;19.75;54.66;96668.56;2068074;28;20202;-70
2024/04/06 08:25:23;;;;;;;2.50;1.30;;;;;;;19.64;54.93;96670.41;2067548;28;20299;-69
2024/04/06 08:26:24;;;;;;;2.73;1.47;;;;;;;19.42;55.37;96666.84;2067669;28;20252;-69
2024/04/06 08:27:24;;;;;;;5.93;1.40;;;;;;;19.49;55.38;96675.13;2067791;28;20210;-67
2024/04/06 08:28:25;;;;;;;6.53;1.47;;;;;;;19.72;55.58;96671.47;2070489;28;20325;-67
2024/04/06 08:29:25;;;;;;;6.33;1.20;;;;;;;19.80;55.08;96664.72;2068348;28;20210;-67
2024/04/06 08:30:26;;;;;;;3.67;1.60;;;;;;;19.52;55.76;96662.50;2067580;28;20499;-70
2024/04/06 08:31:26;;;;;;;4.40;1.57;;;;;;;19.46;55.81;96659.50;2068115;28;20210;-68
2024/04/06 08:32:29;;;;;;;4.73;1.63;;;;;;;19.49;56.76;96657.47;2074690;28;20206;-68
2024/04/06 08:33:29;;;;;;;4.43;1.58;;;;;;;19.94;56.01;96656.50;2068761;28;20261;-69
2024/04/06 08:34:30;;;;;;;5.00;1.77;;;;;;;20.04;55.58;96660.06;2068320;28;20250;-69
2024/04/06 08:35:30;;;;;;;5.90;1.17;;;;;;;20.41;54.45;96655.31;2065924;28;20211;-69
2024/04/06 08:36:31;;;;;;;2.30;1.10;;;;;;;20.63;54.63;96665.78;2068654;28;20329;-69
2024/04/06 08:37:31;;;;;;;4.40;1.60;;;;;;;20.69;54.44;96661.75;2075865;28;20210;-68
2024/04/06 08:38:32;;;;;;;3.37;1.47;;;;;;;20.68;53.50;96662.72;2067145;28;20256;-69
2024/04/06 08:39:32;;;;;;;4.73;1.57;;;;;;;20.86;53.77;96661.19;2072712;28;20221;-69
2024/04/06 08:40:42;;;;;;;4.53;1.30;;;;;;;20.84;53.25;96663.13;2072352;28;20206;-69
2024/04/06 08:41:45;;;;;;;7.97;1.17;;;;;;;20.82;53.15;96666.88;2076543;28;20368;-69
2024/04/06 08:42:45;;;;;;;5.05;1.33;;;;;;;21.03;52.45;96662.38;2067854;28;20917;-69
2024/04/06 08:43:52;;;;;;;6.30;1.30;;;;;;;21.02;52.39;96663.34;2066736;28;20622;-69
2024/04/06 08:44:53;;;;;;;2.45;1.27;;;;;;;20.93;52.31;96665.97;2067995;28;20203;-69
2024/04/06 08:45:54;;;;;;;4.90;1.40;;;;;;;20.90;52.12;96666.22;2058196;28;20249;-68
2024/04/06 08:46:55;;;;;;;13.00;2.07;;;;;;;20.83;53.19;96660.59;2067904;28;20629;-69
2024/04/06 08:47:57;;;;;;;3.47;1.15;;;;;;;20.97;53.03;96664.72;2061206;28;20461;-68
2024/04/06 08:48:59;;;;;;;10.05;1.60;;;;;;;20.85;51.02;96656.03;2067790;28;20210;-69
2024/04/06 08:50:05;;;;;;;10.02;1.35;;;;;;;20.95;51.33;96656.91;2076220;28;20267;-68
2024/04/06 08:51:08;;;;;;;4.72;1.55;;;;;;;21.21;50.52;96657.25;2068962;28;20240;-69
2024/04/06 08:52:10;;;;;;;3.60;1.20;;;;;;;21.29;50.20;96655.75;2066335;28;20211;-69
2024/04/06 08:53:11;;;;;;;5.13;1.20;;;;;;;21.07;50.50;96659.47;2061134;28;20233;-68
2024/04/06 08:54:12;;;;;;;3.50;1.27;;;;;;;20.99;50.86;96655.66;2057832;28;20302;-66
2024/04/06 08:55:12;;;;;;;4.17;1.37;;;;;;;20.49;50.57;96644.88;2071204;28;21041;-64
2024/04/06 08:56:15;;;;;;;2.67;1.30;;;;;;;20.29;50.65;96657.16;2068698;28;20304;-65
2024/04/06 08:57:18;;;;;;;4.57;1.23;;;;;;;20.47;50.85;96658.28;2068984;28;20249;-67
2024/04/06 08:58:19;;;;;;;3.33;1.05;;;;;;;20.67;49.75;96650.44;2069949;28;20222;-66
2024/04/06 08:59:20;;;;;;;3.33;1.17;;;;;;;20.78;49.61;96661.00;2064177;28;20211;-67
2024/04/06 09:00:26;;;;;;;2.83;1.17;;;;;;;20.63;49.25;96649.88;2069958;28;20206;-66
2024/04/06 09:01:27;;;;;;;6.18;1.30;;;;;;;20.53;50.39;96651.59;2069325;28;20258;-67
2024/04/06 09:02:31;;;;;;;8.70;1.50;;;;;;;20.76;50.23;96644.38;2069224;28;20216;-67
2024/04/06 09:03:32;;;;;;;5.65;1.00;;;;;;;20.97;50.77;96632.88;2071793;28;20456;-67
2024/04/06 09:04:32;;;;;;;3.13;1.10;;;;;;;20.75;50.88;96637.38;2062773;28;20264;-67
2024/04/06 09:05:33;;;;;;;8.20;1.20;;;;;;;20.99;48.70;96631.75;2060873;28;20693;-66
2024/04/06 09:06:34;;;;;;;2.78;1.23;;;;;;;21.12;49.77;96634.19;2066880;28;20329;-66
2024/04/06 09:07:35;;;;;;;3.00;1.10;;;;;;;21.26;49.70;96630.31;2064558;28;20210;-66
2024/04/06 09:08:37;;;;;;;2.40;1.20;;;;;;;21.37;50.10;96632.84;2068927;28;20203;-66
2024/04/06 09:09:37;;;;;;;7.18;1.67;;;;;;;21.06;49.34;96621.44;2067676;28;20206;-67
2024/04/06 09:10:38;;;;;;;4.40;1.40;;;;;;;20.93;49.16;96629.63;2074860;28;20652;-67
2024/04/06 09:11:40;;;;;;;4.40;1.30;;;;;;;21.12;48.88;96620.91;2067407;28;20568;-67
2024/04/06 09:12:42;;;;;;;4.30;1.08;;;;;;;21.16;48.66;96624.97;2068422;28;20207;-67
2024/04/06 09:13:42;;;;;;;4.82;1.30;;;;;;;21.32;49.60;96628.94;2068850;28;20217;-66
2024/04/06 09:14:46;;;;;;;2.87;1.13;;;;;;;21.32;48.94;96619.16;2065899;28;20203;-67
2024/04/06 09:15:47;;;;;;;2.03;1.10;;;;;;;21.33;48.26;96627.94;2066537;28;20580;-66
2024/04/06 09:16:47;;;;;;;4.87;1.10;;;;;;;21.27;47.91;96628.47;2067499;28;20218;-67
2024/04/06 09:17:48;;;;;;;2.33;1.20;;;;;;;21.43;48.41;96620.00;2067484;28;20601;-66
2024/04/06 09:18:51;;;;;;;3.97;1.10;;;;;;;21.62;47.84;96628.06;2070926;28;20569;-66
2024/04/06 09:19:51;;;;;;;4.43;1.20;;;;;;;21.84;48.52;96631.44;2074564;28;20206;-66
2024/04/06 09:20:52;;;;;;;1.87;1.00;;;;;;;21.86;47.31;96616.16;2068210;28;20237;-66
2024/04/06 09:21:52;;;;;;;2.30;1.10;;;;;;;22.34;47.85;96620.59;2067661;28;20258;-66
2024/04/06 09:22:55;;;;;;;3.60;1.20;;;;;;;22.40;47.59;96626.34;2067695;28;20249;-66
2024/04/06 09:23:57;;;;;;;5.15;1.00;;;;;;;22.22;47.39;96613.78;2072264;28;20217;-67
2024/04/06 09:24:58;;;;;;;6.20;1.20;;;;;;;22.43;46.97;96628.75;2071486;28;20205;-66
2024/04/06 09:25:59;;;;;;;2.10;1.00;;;;;;;22.55;45.46;96632.06;2066704;28;20668;-66
2024/04/06 09:27:08;;;;;;;2.45;1.10;;;;;;;22.72;45.99;96625.19;2068028;28;20311;-66
2024/04/06 09:28:10;;;;;;;2.20;0.90;;;;;;;22.75;44.78;96627.53;2071244;28;20252;-66
2024/04/06 09:29:11;;;;;;;3.70;1.15;;;;;;;22.68;45.09;96616.63;2071552;28;20260;-66
2024/04/06 09:30:12;;;;;;;2.17;0.97;;;;;;;22.43;44.85;96632.22;2067123;28;20281;-66
2024/04/06 09:31:18;;;;;;;3.30;1.43;;;;;;;22.34;44.25;96620.59;2065263;28;20210;-66
2024/04/06 09:32:22;;;;;;;12.13;1.38;;;;;;;22.40;44.26;96621.03;2068038;28;20205;-66
2024/04/06 09:33:25;;;;;;;3.90;0.95;;;;;;;22.44;45.11;96617.13;2064753;28;20227;-66
2024/04/06 09:34:26;;;;;;;2.83;1.00;;;;;;;22.26;45.71;96616.97;2066594;28;20276;-66
2024/04/06 09:35:28;;;;;;;2.30;1.20;;;;;;;22.38;46.12;96620.34;2068764;28;20226;-66
2024/04/06 09:36:35;;;;;;;2.53;1.15;;;;;;;22.55;45.70;96619.63;2075358;28;20201;-66
2024/04/06 09:37:40;;;;;;;9.32;1.50;;;;;;;22.88;45.56;96612.09;2068363;28;20207;-66
2024/04/06 09:38:43;;;;;;;4.85;0.98;;;;;;;22.90;44.27;96612.75;2070134;28;20210;-67
2024/04/06 09:39:43;;;;;;;1.50;0.90;;;;;;;22.61;43.54;96615.53;2065227;28;20622;-67
2024/04/06 09:40:46;;;;;;;2.37;1.00;;;;;;;22.63;43.64;96614.41;2067498;28;20276;-67
2024/04/06 09:41:47;;;;;;;3.95;1.00;;;;;;;23.02;43.24;96609.91;2067793;28;20198;-67
2024/04/06 09:42:48;;;;;;;2.83;1.23;;;;;;;23.02;43.23;96609.91;2059210;28;20758;-66
2024/04/06 09:43:54;;;;;;;2.88;1.30;;;;;;;22.95;43.14;96610.50;2067758;28;20218;-67
2024/04/06 09:44:56;;;;;;;2.70;0.95;;;;;;;22.89;43.03;96595.09;2075619;28;20209;-67
2024/04/06 09:45:57;;;;;;;3.38;0.80;;;;;;;22.99;43.50;96613.72;2068783;28;20218;-67
2024/04/06 09:46:58;;;;;;;5.33;1.30;;;;;;;23.12;43.97;96608.03;2069986;28;20573;-67
2024/04/06 09:47:59;;;;;;;4.28;1.33;;;;;;;23.06;43.77;96601.50;2069099;28;20269;-66
2024/04/06 09:49:02;;;;;;;4.00;1.50;;;;;;;23.05;42.88;96618.44;2069009;28;20229;-67
2024/04/06 09:50:04;;;;;;;4.20;1.40;;;;;;;22.85;42.73;96604.38;2068067;28;20202;-67
2024/04/06 09:51:05;;;;;;;3.78;1.00;;;;;;;22.95;42.25;96597.19;2068922;28;20206;-66
2024/04/06 09:52:06;;;;;;;2.78;1.20;;;;;;;23.13;42.33;96609.72;2076860;28;20613;-67
2024/04/06 09:53:07;;;;;;;5.20;1.13;;;;;;;23.15;42.44;96597.97;2069382;28;20284;-67
2024/04/06 09:54:08;;;;;;;5.15;1.08;;;;;;;23.19;43.06;96603.00;2067442;28;20573;-67
2024/04/06 09:55:09;;;;;;;1.90;1.00;;;;;;;23.36;43.08;96612.00;2067012;28;20215;-67
2024/04/06 09:56:11;;;;;;;2.80;0.90;;;;;;;23.06;43.46;96609.47;2074857;28;20209;-67
2024/04/06 09:57:13;;;;;;;3.13;1.02;;;;;;;23.29;43.74;96607.28;2068589;28;20299;-67
2024/04/06 09:58:18;;;;;;;3.08;1.08;;;;;;;23.48;44.16;96614.31;2071216;28;20226;-67
2024/04/06 09:59:22;;;;;;;2.67;1.05;;;;;;;23.58;42.99;96603.59;2071959;28;20210;-67
2024/04/06 10:00:23;;;;;;;9.48;1.00;;;;;;;23.40;43.87;96608.06;2071269;28;20214;-67
2024/04/06 10:01:27;;;;;;;3.67;1.20;;;;;;;23.40;43.80;96616.03;2067009;28;20225;-67
2024/04/06 10:02:34;;;;;;;1.70;0.88;;;;;;;23.52;43.15;96617.53;2067528;28;20206;-66
2024/04/06 10:03:35;;;;;;;2.83;1.30;;;;;;;23.53;42.24;96600.53;2068792;28;20221;-63
2024/04/06 10:04:37;;;;;;;2.65;1.13;;;;;;;23.67;43.72;96601.84;2068481;28;20229;-63
2024/04/06 10:05:46;;;;;;;3.65;0.90;;;;;;;23.74;41.27;96605.56;2068194;28;20210;-62
2024/04/06 10:06:50;;;;;;;2.65;0.90;;;;;;;23.88;40.42;96593.53;2069360;28;20230;-63
2024/04/06 10:07:52;;;;;;;2.75;1.02;;;;;;;24.04;42.03;96597.38;2068917;28;20226;-62
2024/04/06 10:08:57;;;;;;;3.28;1.10;;;;;;;23.96;42.84;96596.31;2068166;28;20712;-62
2024/04/06 10:10:05;;;;;;;5.72;1.67;;;;;;;23.88;43.42;96596.19;2068332;28;20215;-62
2024/04/06 10:11:06;;;;;;;2.53;1.17;;;;;;;23.76;43.81;96595.59;2072397;28;20268;-62
2024/04/06 10:12:08;;;;;;;3.07;1.13;;;;;;;23.84;43.28;96591.34;2071724;28;20226;-62
2024/04/06 10:13:09;;;;;;;2.28;1.10;;;;;;;24.07;42.30;96594.41;2066343;28;20235;-62
2024/04/06 10:14:10;;;;;;;3.50;1.10;;;;;;;24.45;43.74;96601.19;2068204;28;20205;-62
2024/04/06 10:15:15;;;;;;;2.17;1.03;;;;;;;24.19;42.24;96597.66;2068052;28;20200;-62
2024/04/06 10:16:16;;;;;;;4.25;1.00;;;;;;;24.44;42.91;96594.19;2068500;28;20637;-62
2024/04/06 10:17:17;;;;;;;3.23;1.40;;;;;;;24.65;42.07;96593.00;2068147;28;20640;-62
2024/04/06 10:18:19;;;;;;;4.07;0.90;;;;;;;24.62;42.24;96598.63;2064803;28;20226;-62
2024/04/06 10:19:20;;;;;;;3.95;1.20;;;;;;;24.58;42.58;96597.25;2070754;28;20874;-63
2024/04/06 10:20:22;;;;;;;2.33;1.10;;;;;;;24.65;43.69;96589.50;2071708;28;20211;-62
2024/04/06 10:21:29;;;;;;;4.40;1.50;;;;;;;24.73;43.48;96593.03;2074057;28;20218;-62
2024/04/06 10:22:31;;;;;;;4.00;1.20;;;;;;;24.88;42.48;96595.13;2067883;28;20203;-62
2024/04/06 10:23:38;;;;;;;5.40;1.48;;;;;;;24.97;42.73;96580.78;2067225;28;20212;-62
2024/04/06 10:24:39;;;;;;;2.88;1.23;;;;;;;25.25;42.00;96583.22;2074084;28;20199;-62
2024/04/06 10:25:40;;;;;;;5.93;1.17;;;;;;;25.19;42.75;96579.38;2067092;28;20291;-63
2024/04/06 10:26:49;;;;;;;6.10;1.30;;;;;;;24.74;40.73;96583.19;2065916;28;20259;-62
2024/04/06 10:27:59;;;;;;;2.55;1.10;;;;;;;24.58;40.69;96573.22;2068228;28;20229;-61
2024/04/06 10:28:59;;;;;;;4.47;1.20;;;;;;;25.00;41.68;96555.59;2069881;28;20215;-62
2024/04/06 10:30:01;;;;;;;4.60;1.10;;;;;;;25.17;41.21;96575.22;2069099;28;20238;-62
2024/04/06 10:31:02;;;;;;;5.40;1.30;;;;;;;24.75;40.77;96567.00;2068883;28;20665;-62
2024/04/06 10:32:03;;;;;;;2.38;1.30;;;;;;;25.15;40.81;96574.53;2069090;28;20213;-62
2024/04/06 10:33:04;;;;;;;1.80;0.80;;;;;;;25.21;40.97;96574.69;2067220;28;20228;-67
2024/04/06 10:34:05;;;;;;;2.13;1.10;;;;;;;25.63;41.31;96572.16;2075780;28;20650;-67
2024/04/06 10:35:06;;;;;;;2.40;1.10;;;;;;;25.53;40.99;96573.13;2067530;28;20769;-67
2024/04/06 10:36:11;;;;;;;1.80;1.10;;;;;;;25.38;39.66;96570.28;2067201;28;20250;-67
2024/04/06 10:37:11;;;;;;;3.92;1.40;;;;;;;25.33;39.81;96575.25;2068973;28;20231;-68
2024/04/06 10:38:12;;;;;;;3.10;1.20;;;;;;;25.66;40.22;96571.81;2067867;28;20251;-68
2024/04/06 10:39:14;;;;;;;3.22;1.10;;;;;;;25.63;39.99;96569.50;2073975;28;20220;-67
2024/04/06 10:40:15;;;;;;;2.70;1.55;;;;;;;25.86;40.51;96567.81;2073706;28;20720;-66
2024/04/06 10:41:15;;;;;;;3.90;1.07;;;;;;;25.50;40.41;96567.31;2065520;28;20200;-67
2024/04/06 10:42:16;;;;;;;3.97;1.70;;;;;;;26.03;39.49;96563.34;2072928;28;20236;-67
2024/04/06 10:43:16;;;;;;;1.70;1.10;;;;;;;26.40;37.80;96563.84;2064466;28;20710;-67
2024/04/06 10:44:17;;;;;;;5.83;1.23;;;;;;;26.63;38.09;96563.13;2074291;28;20640;-67
2024/04/06 10:45:18;;;;;;;2.83;1.10;;;;;;;26.82;38.56;96562.72;2075558;28;20612;-66
2024/04/06 10:46:19;;;;;;;3.67;1.10;;;;;;;27.16;37.55;96577.66;2068029;28;20214;-67
2024/04/06 10:47:19;;;;;;;3.17;1.15;;;;;;;26.95;38.65;96559.50;2075825;28;20260;-67
2024/04/06 10:48:20;;;;;;;3.63;1.13;;;;;;;26.47;37.98;96555.94;2067374;28;20228;-67
2024/04/06 10:49:21;;;;;;;2.63;1.27;;;;;;;26.27;37.76;96561.69;2065593;28;20210;-67
2024/04/06 10:50:22;;;;;;;2.08;0.85;;;;;;;26.24;38.51;96557.50;2065032;28;20211;-67
2024/04/06 10:51:22;;;;;;;2.33;0.90;;;;;;;26.15;38.69;96571.88;2065260;28;20220;-67
2024/04/06 10:52:23;;;;;;;2.73;1.70;;;;;;;26.19;38.59;96553.66;2073946;28;20708;-67
2024/04/06 10:53:24;;;;;;;4.27;1.53;;;;;;;26.42;39.19;96571.69;2066740;28;20232;-67
2024/04/06 10:54:25;;;;;;;3.35;1.40;;;;;;;25.82;39.05;96563.00;2067388;28;20677;-68
2024/04/06 10:55:27;;;;;;;4.60;0.97;;;;;;;25.97;39.53;96557.81;2068223;28;20667;-67
2024/04/06 10:56:28;;;;;;;9.05;1.00;;;;;;;26.20;38.84;96566.03;2065031;28;20202;-67
2024/04/06 10:57:29;;;;;;;2.90;0.90;;;;;;;26.76;38.38;96563.41;2064061;28;20282;-67
2024/04/06 10:58:30;;;;;;;3.08;1.00;;;;;;;27.13;38.74;96564.59;2067039;28;20209;-67
2024/04/06 10:59:31;;;;;;;2.30;1.00;;;;;;;26.52;37.56;96565.13;2066473;28;20217;-66
2024/04/06 11:00:31;;;;;;;2.50;1.17;;;;;;;26.79;38.16;96560.41;2075882;28;20666;-67
2024/04/06 11:01:34;;;;;;;6.17;1.30;;;;;;;26.25;37.70;96563.69;2075852;28;20793;-67
2024/04/06 11:02:36;;;;;;;4.40;1.55;;;;;;;26.39;38.22;96556.81;2066735;28;20202;-67
2024/04/06 11:03:37;;;;;;;4.65;1.20;;;;;;;26.41;37.75;96560.16;2069890;28;20645;-67
2024/04/06 11:04:40;;;;;;;2.50;1.27;;;;;;;26.66;37.78;96552.03;2070764;28;20548;-67
2024/04/06 11:05:41;;;;;;;2.70;1.00;;;;;;;26.76;37.27;96546.53;2066858;28;20668;-67
2024/04/06 11:06:41;;;;;;;3.07;1.07;;;;;;;26.47;37.62;96554.09;2073487;28;20633;-67
2024/04/06 11:07:42;;;;;;;2.90;1.20;;;;;;;26.95;37.62;96561.34;2072379;28;20217;-67
2024/04/06 11:08:42;;;;;;;2.90;1.00;;;;;;;27.05;36.40;96552.09;2067051;28;20210;-67
2024/04/06 11:09:43;;;;;;;2.40;1.20;;;;;;;26.97;35.98;96557.50;2066252;28;20207;-68
2024/04/06 11:10:44;;;;;;;2.20;0.90;;;;;;;26.89;36.70;96557.50;2068277;28;20669;-67
2024/04/06 11:11:45;;;;;;;3.28;1.05;;;;;;;26.81;35.77;96554.88;2075772;28;20206;-68
2024/04/06 11:12:46;;;;;;;1.90;0.90;;;;;;;26.92;35.52;96546.47;2069144;28;20284;-62
2024/04/06 11:13:46;;;;;;;2.07;1.10;;;;;;;27.01;35.69;96547.28;2068595;28;20211;-62
2024/04/06 11:14:49;;;;;;;3.87;1.20;;;;;;;27.02;35.93;96546.25;2067649;28;20277;-63
2024/04/06 11:15:50;;;;;;;2.20;0.90;;;;;;;27.17;36.08;96544.50;2071706;28;20226;-62
2024/04/06 11:16:52;;;;;;;5.23;1.20;;;;;;;27.26;35.52;96545.31;2071385;28;20213;-62
2024/04/06 11:17:54;;;;;;;2.35;0.80;;;;;;;27.84;35.53;96547.63;2070411;28;20456;-62
2024/04/06 11:18:56;;;;;;;2.08;1.00;;;;;;;28.02;35.59;96547.28;2065170;28;20242;-61
2024/04/06 11:19:59;;;;;;;3.78;0.80;;;;;;;27.84;35.02;96551.13;2061006;28;20203;-62
2024/04/06 11:21:00;;;;;;;3.08;0.90;;;;;;;28.13;34.57;96546.06;2064153;28;20229;-61
2024/04/06 11:22:04;;;;;;;2.20;0.90;;;;;;;27.82;34.72;96550.47;2070685;28;20214;-61
2024/04/06 11:23:05;;;;;;;1.63;0.80;;;;;;;27.96;33.94;96542.66;2065438;28;20218;-62
2024/04/06 11:24:06;;;;;;;1.60;0.80;;;;;;;27.50;33.54;96555.06;2067885;28;20211;-62
2024/04/06 11:25:07;;;;;;;4.03;0.90;;;;;;;27.59;33.97;96539.78;2072704;28;20221;-62
2024/04/06 11:26:07;;;;;;;3.83;0.90;;;;;;;27.61;33.25;96542.25;2066871;28;20213;-62
2024/04/06 11:27:08;;;;;;;5.93;1.13;;;;;;;27.58;32.27;96542.59;2069285;28;20217;-62
2024/04/06 11:28:09;;;;;;;3.60;1.17;;;;;;;27.75;32.62;96543.34;2071493;28;20222;-62
2024/04/06 11:29:12;;;;;;;2.67;0.80;;;;;;;27.76;32.79;96536.97;2072758;28;20214;-63
2024/04/06 11:30:14;;;;;;;2.97;1.00;;;;;;;27.48;32.03;96535.63;2074937;28;20217;-63
2024/04/06 11:31:16;;;;;;;1.90;0.98;;;;;;;27.68;32.20;96540.50;2069295;28;20661;-62
2024/04/06 11:32:19;;;;;;;3.15;0.70;;;;;;;27.94;31.55;96533.97;2070751;28;20221;-63
2024/04/06 11:33:19;;;;;;;10.13;1.40;;;;;;;27.83;31.76;96536.06;2073405;28;20227;-62
2024/04/06 11:34:20;;;;;;;3.03;0.80;;;;;;;28.11;31.29;96526.63;2074392;28;20236;-63
2024/04/06 11:35:21;;;;;;;6.07;1.00;;;;;;;27.64;30.82;96544.56;2067114;28;20526;-62
2024/04/06 11:36:22;;;;;;;1.27;0.70;;;;;;;28.06;31.70;96537.06;2067895;28;20215;-62
2024/04/06 11:37:24;;;;;;;3.03;1.10;;;;;;;28.23;30.96;96535.91;2067977;28;20319;-62
2024/04/06 11:38:24;;;;;;;2.10;1.00;;;;;;;27.86;30.32;96530.31;2071053;28;20237;-62
2024/04/06 11:39:25;;;;;;;1.90;0.90;;;;;;;28.16;31.01;96524.22;2071242;28;20762;-64
2024/04/06 11:40:26;;;;;;;3.40;1.07;;;;;;;27.83;30.51;96532.53;2074754;28;20202;-62
2024/04/06 11:41:27;;;;;;;2.37;1.00;;;;;;;27.64;30.07;96526.66;2074614;28;20218;-63
2024/04/06 11:42:27;;;;;;;1.70;0.80;;;;;;;28.04;31.43;96523.84;2065396;28;20224;-62
2024/04/06 11:43:28;;;;;;;3.23;1.00;;;;;;;28.37;31.22;96531.56;2067351;28;20828;-63
2024/04/06 11:44:28;;;;;;;2.50;0.70;;;;;;;28.07;29.52;96534.19;2068951;28;20284;-62